Hampton, Arkansas
Current Conditions -  °F | °C
As of 3:55 AM on Sunday 23 Nov 2014 (Local Time) from KCDH Reporting Station
Haze Haze  
Wind Chill: 57°   Ceiling: 1100
Heat Index: 57°   Visibility: 5mi
Dew Point: 54°   Wind: 6mph
Humidity: 88%   Direction: 30°NNE
Pressure: 29.7"   Gusts: NA
Location:  33.54°N, 92.47°W
Report Text: KCDH 230955Z AUTO 03005KT 5SM BR OVC011 14/12 A2970 RMK AO2 P0001
Loading
Personal Weather Stations






























Interactive Weather Map New forecast layout! Learn more

10-Day Weather Forecast

Advertisements
Track Severe Weather on mobile